Details From TBPB - Barbados/Grantley Adams Intl
To TTCP - Tobago/Crown Point Intl
Flight Number -
Tags decoded
Created
Modified
Stats Distance 159 nm / 295 km
Max Altitude 0 ft / 0 m
Waypoints 8
Social Downloads 1
Likes 0
Share VATSIM

Download

Looking for another format? Having issues loading an existing format? Contact us
Advertisement - Login to hide

Notes

Requested: TBPB BAR24 SAVOX R1362 LOGAN DANOT IMAXI SASIM NOTEL TTCP Unmatched points: BAR24 SAVOX

Route

TBPB R1362 LOGAN DANOT IMAXI SASIM NOTEL TTCP

ID Type Via Altitude Latitude Longitude Leg Dist Tot Dist Heading (true) Name
O TBPB APT - 0 ft / 0 m 13.07461˚ -59.49221˚ - 0 nm - Barbados/Grantley Adams Intl
R1362 FIX - 0 ft / 0 m 13.07091˚ -59.50749˚ 0 nm 0 nm 256° / 256° -
LOGAN FIX - 0 ft / 0 m 12.14111˚ -60.14639˚ 67 nm 68 nm 214° / 214° -
DANOT FIX - 0 ft / 0 m 11.48167˚ -60.60000˚ 47 nm 115 nm 214° / 214° -
IMAXI FIX - 0 ft / 0 m 11.24667˚ -61.00667˚ 27 nm 143 nm 240° / 239° -
SASIM FIX - 0 ft / 0 m 11.16333˚ -61.01333˚ 5 nm 148 nm 184° / 184° -
NOTEL FIX - 0 ft / 0 m 11.15667˚ -60.92833˚ 5 nm 153 nm 95° / 95° -
O TTCP APT - 0 ft / 0 m 11.14966˚ -60.83220˚ 5 nm 159 nm 94° / 94° Tobago/Crown Point Intl

Altitude Profile

Advertisement - Login to hide

TBPB

Details ICAO TBPB (BGI)
Name Barbados/Grantley Adams Intl
Region Barbados
Timezone America/Barbados (UTC-4.0)
Stats Elevation 168 ft / 51 m (AMSL)
Location 13.074614° -59.492206°
Runways 1
Magnetic Variation 15.612° W

METAR

TBPB 140600Z 10014KT 9999 FEW020 26/23 Q1014 NOSIG

Decode

TAF

Not found

Departure Runways

ID Width Length Bearing (true) Bearing (mag) Surface Threshold Offset Overrun Length
09 148 ft / 45 m 11,924 ft / 3,635 m 75.84° 91.45° Asphalt 0 ft / 0 m 174 ft / 53 m
27 148 ft / 45 m 11,924 ft / 3,635 m 255.85° 271.46° Asphalt 0 ft / 0 m 0 ft / 0 m

TTCP

Details ICAO TTCP (TAB)
Name Tobago/Crown Point Intl
Region Trinidad and Tobago
Timezone America/Port_of_Spain (UTC-4.0)
Stats Elevation 36 ft / 11 m (AMSL)
Location 11.149660° -60.832196°
Runways 1
Magnetic Variation 15.193° W

METAR

TTCP 140600Z 06003KT 9999 FEW016 26/23 Q1013 NOSIG

Decode

TAF

Not found

Destination Runways

ID Width Length Bearing (true) Bearing (mag) Surface Threshold Offset Overrun Length
11 148 ft / 45 m 8,995 ft / 2,742 m 94.17° 109.36° Asphalt 1,004 ft / 306 m 0 ft / 0 m
29 148 ft / 45 m 8,995 ft / 2,742 m 274.17° 289.36° Asphalt 0 ft / 0 m 299 ft / 91 m

Approach Navaids

Runway Type Ident Frequency Range Bearing (true) Bearing (mag) Slope Elevation
11 Localiser ITAB 109.30 MHz 18 nm / 33 km 94.17° 109.36° - 36 ft / 11 m (AMSL)
11 Glidescope ITAB 109.30 MHz 10 nm / 19 km 94.17° 109.36° 3.00° 36 ft / 11 m (AMSL)
11 DME ITAB 109.30 MHz 18 nm / 33 km - - - 36 ft / 11 m (AMSL)

Popular Alternatives